createdAt,value
2023-05-05T00:01:29.890Z,101474.34
2023-05-05T00:03:57.584Z,101469.94
2023-05-05T00:06:25.202Z,101478.91
2023-05-05T00:08:52.785Z,101470.88
2023-05-05T00:11:20.343Z,101473.56
2023-05-05T00:13:49.346Z,101474.53
2023-05-05T00:16:17.558Z,101471.88
2023-05-05T00:18:45.585Z,101466.50
2023-05-05T00:21:13.260Z,101459.38
2023-05-05T00:23:41.919Z,101452.31
2023-05-05T00:26:09.593Z,101456.75
2023-05-05T00:28:37.292Z,101465.72
2023-05-05T00:31:07.344Z,101455.94
2023-05-05T00:33:35.047Z,101457.75
2023-05-05T00:36:02.827Z,101456.00
2023-05-05T00:38:30.528Z,101450.63
2023-05-05T00:40:58.215Z,101448.00
2023-05-05T00:43:25.947Z,101446.19
2023-05-05T00:46:01.006Z,101459.66
2023-05-05T00:48:31.583Z,101473.03
2023-05-05T00:51:00.486Z,101467.75
2023-05-05T00:53:28.368Z,101468.59
2023-05-05T00:55:56.371Z,101475.78
2023-05-05T00:58:24.186Z,101485.59
2023-05-05T01:00:51.824Z,101479.38
2023-05-05T01:03:19.500Z,101461.53
2023-05-05T01:05:59.619Z,101470.44
2023-05-05T01:08:43.605Z,101461.53
2023-05-05T01:11:17.771Z,101472.31
2023-05-05T01:13:53.733Z,101461.63
2023-05-05T01:16:27.174Z,101467.00
2023-05-05T01:19:00.831Z,101464.31
2023-05-05T01:21:34.751Z,101457.19
2023-05-05T01:24:23.230Z,101442.06
2023-05-05T01:27:11.300Z,101440.31
2023-05-05T01:29:52.202Z,101422.47
2023-05-05T01:32:25.835Z,101414.44
2023-05-05T01:34:58.680Z,101398.38
2023-05-05T01:37:30.272Z,101380.53
2023-05-05T01:40:05.169Z,101371.66
2023-05-05T01:42:34.895Z,101379.69
2023-05-05T01:45:08.038Z,101376.09
2023-05-05T01:47:38.994Z,101377.00
2023-05-05T01:50:09.385Z,101372.56
2023-05-05T01:52:39.143Z,101368.97
2023-05-05T01:55:08.864Z,101373.47
2023-05-05T01:57:38.231Z,101377.06
2023-05-05T02:00:09.684Z,101375.25
2023-05-05T02:02:40.227Z,101376.16
2023-05-05T02:05:08.500Z,101372.69
2023-05-05T02:07:37.347Z,101373.56
2023-05-05T02:10:08.013Z,101383.41
2023-05-05T02:12:38.547Z,101403.91
2023-05-05T02:15:07.700Z,101388.75
2023-05-05T02:17:35.624Z,101382.50
2023-05-05T02:20:06.182Z,101384.31
2023-05-05T02:22:34.038Z,101371.78
2023-05-05T02:25:01.663Z,101376.28
2023-05-05T02:27:29.749Z,101379.88
2023-05-05T02:30:02.791Z,101374.53
2023-05-05T02:32:34.758Z,101377.22
2023-05-05T02:35:11.711Z,101372.78
2023-05-05T02:37:40.972Z,101379.00
2023-05-05T02:40:11.431Z,101385.31
2023-05-05T02:42:42.862Z,101387.97
2023-05-05T02:45:16.270Z,101391.53
2023-05-05T02:47:43.984Z,101420.13
2023-05-05T02:50:13.363Z,101424.56
2023-05-05T02:52:41.090Z,101427.28
2023-05-05T02:55:09.516Z,101429.97
2023-05-05T02:57:41.304Z,101443.38
2023-05-05T03:00:15.940Z,101441.59
2023-05-05T03:02:47.725Z,101441.66
2023-05-05T03:05:20.083Z,101439.91
2023-05-05T03:07:51.548Z,101439.97
2023-05-05T03:10:22.231Z,101442.66
2023-05-05T03:12:54.554Z,101446.25
2023-05-05T03:15:26.352Z,101452.47
2023-05-05T03:17:55.006Z,101449.78
2023-05-05T03:20:24.566Z,101460.50
2023-05-05T03:22:52.818Z,101458.72
2023-05-05T03:25:20.429Z,101460.56
2023-05-05T03:27:48.212Z,101457.88
2023-05-05T03:30:16.108Z,101462.34
2023-05-05T03:32:43.795Z,101467.69
2023-05-05T03:35:11.903Z,101465.06
2023-05-05T03:37:41.065Z,101472.25
2023-05-05T03:40:09.936Z,101469.56
2023-05-05T03:42:37.692Z,101474.91
2023-05-05T03:45:05.976Z,101478.53
2023-05-05T03:47:34.120Z,101477.69
2023-05-05T03:50:01.783Z,101474.13
2023-05-05T03:52:29.517Z,101478.59
2023-05-05T03:55:00.033Z,101479.50
2023-05-05T03:57:27.754Z,101474.16
2023-05-05T03:59:56.010Z,101485.81
2023-05-05T04:02:23.819Z,101489.38
2023-05-05T04:04:51.575Z,101498.31
2023-05-05T04:07:19.286Z,101496.53
2023-05-05T04:09:46.953Z,101507.25
2023-05-05T04:12:16.046Z,101504.59
2023-05-05T04:14:43.626Z,101499.22
2023-05-05T04:17:11.247Z,101506.41
2023-05-05T04:19:38.822Z,101504.66
2023-05-05T04:22:06.528Z,101509.09
2023-05-05T04:24:34.264Z,101521.56
2023-05-05T04:27:02.239Z,101518.03
2023-05-05T04:29:31.148Z,101524.31
2023-05-05T04:31:58.722Z,101521.63
2023-05-05T04:34:26.383Z,101528.81
2023-05-05T04:36:54.137Z,101526.13
2023-05-05T04:39:21.998Z,101520.75
2023-05-05T04:41:49.566Z,101518.09
2023-05-05T04:44:17.226Z,101520.75
2023-05-05T04:46:46.205Z,101518.09
2023-05-05T04:49:13.881Z,101525.22
2023-05-05T04:51:42.340Z,101518.09
2023-05-05T04:54:10.136Z,101517.25
2023-05-05T04:56:37.902Z,101522.59
2023-05-05T04:59:05.936Z,101527.09
2023-05-05T05:01:34.364Z,101526.16
2023-05-05T05:04:05.119Z,101533.31
2023-05-05T05:06:33.324Z,101536.00
2023-05-05T05:09:00.991Z,101537.81
2023-05-05T05:11:28.799Z,101540.47
2023-05-05T05:13:56.703Z,101549.38
2023-05-05T05:16:25.903Z,101549.38
2023-05-05T05:18:53.510Z,101554.69
2023-05-05T05:21:22.701Z,101553.88
2023-05-05T05:23:50.347Z,101569.94
2023-05-05T05:26:18.036Z,101561.91
2023-05-05T05:28:45.677Z,101564.59
2023-05-05T05:31:13.336Z,101563.63
2023-05-05T05:33:40.998Z,101565.44
2023-05-05T05:36:08.892Z,101557.38
2023-05-05T05:38:37.905Z,101558.13
2023-05-05T05:41:08.677Z,101563.34
2023-05-05T05:43:36.302Z,101560.53
2023-05-05T05:46:04.266Z,101562.22
2023-05-05T05:48:32.314Z,101562.09
2023-05-05T05:50:59.921Z,101565.59
2023-05-05T05:53:27.549Z,101569.06
2023-05-05T05:55:57.437Z,101569.06
2023-05-05T05:58:25.122Z,101568.16
2023-05-05T06:00:52.762Z,101575.28
2023-05-05T06:03:20.600Z,101571.69
2023-05-05T06:05:48.380Z,101565.41
2023-05-05T06:08:16.093Z,101569.78
2023-05-05T06:10:43.716Z,101563.44
2023-05-05T06:13:12.929Z,101569.66
2023-05-05T06:15:40.611Z,101566.06
2023-05-05T06:18:08.316Z,101571.38
2023-05-05T06:20:35.969Z,101572.25
2023-05-05T06:23:03.513Z,101576.66
2023-05-05T06:25:31.172Z,101583.75
2023-05-05T06:27:58.788Z,101570.31
2023-05-05T06:30:27.811Z,101572.06
2023-05-05T06:32:55.704Z,101575.59
2023-05-05T06:35:23.348Z,101573.72
2023-05-05T06:37:50.980Z,101577.25
2023-05-05T06:40:18.839Z,101582.53
2023-05-05T06:42:46.417Z,101588.66
2023-05-05T06:45:14.078Z,101595.75
2023-05-05T06:47:44.156Z,101604.56
2023-05-05T06:50:12.308Z,101606.28
2023-05-05T06:52:39.964Z,101598.16
2023-05-05T06:55:08.314Z,101583.75
2023-05-05T06:57:36.044Z,101584.53
2023-05-05T07:00:05.646Z,101604.13
2023-05-05T07:02:33.778Z,101613.00
2023-05-05T07:05:02.834Z,101606.72
2023-05-05T07:07:31.738Z,101601.31
2023-05-05T07:09:59.452Z,101606.66
2023-05-05T07:12:30.356Z,101603.91
2023-05-05T07:14:58.132Z,101612.78
2023-05-05T07:17:25.890Z,101605.56
2023-05-05T07:19:54.996Z,101618.94
2023-05-05T07:22:24.196Z,101618.78
2023-05-05T07:24:53.248Z,101620.50
2023-05-05T07:27:21.507Z,101624.94
2023-05-05T07:29:49.224Z,101626.66
2023-05-05T07:32:17.015Z,101630.16
2023-05-05T07:34:44.747Z,101620.50
2023-05-05T07:37:12.368Z,101624.16
2023-05-05T07:39:42.010Z,101624.97
2023-05-05T07:42:09.698Z,101622.34
2023-05-05T07:44:37.350Z,101622.34
2023-05-05T07:47:05.026Z,101633.13
2023-05-05T07:49:32.631Z,101627.78
2023-05-05T07:52:00.313Z,101627.84
2023-05-05T07:54:28.934Z,101627.91
2023-05-05T07:56:58.347Z,101629.69
2023-05-05T07:59:26.007Z,101624.38
2023-05-05T08:01:54.818Z,101633.34
2023-05-05T08:04:22.797Z,101630.66
2023-05-05T08:06:50.472Z,101625.31
2023-05-05T08:09:18.077Z,101632.47
2023-05-05T08:11:45.726Z,101636.94
2023-05-05T08:14:15.173Z,101639.63
2023-05-05T08:16:42.883Z,101645.00
2023-05-05T08:19:21.226Z,101653.03
2023-05-05T08:21:56.129Z,101646.81
2023-05-05T08:24:23.866Z,101644.19
2023-05-05T08:26:51.497Z,101650.47
2023-05-05T08:29:20.440Z,101657.63
2023-05-05T08:31:48.124Z,101667.50
2023-05-05T08:34:15.902Z,101666.59
2023-05-05T08:36:43.626Z,101662.13
2023-05-05T08:39:11.219Z,101665.72
2023-05-05T08:41:38.859Z,101668.41
2023-05-05T08:44:06.574Z,101667.50
2023-05-05T08:46:37.541Z,101663.88
2023-05-05T08:49:06.848Z,101672.84
2023-05-05T08:51:42.248Z,101668.34
2023-05-05T08:54:17.826Z,101671.94
2023-05-05T08:56:47.838Z,101674.69
2023-05-05T08:59:16.674Z,101679.13
2023-05-05T09:01:46.129Z,101685.41
2023-05-05T09:04:13.713Z,101683.66
2023-05-05T09:06:41.475Z,101688.16
2023-05-05T09:09:10.104Z,101689.91
2023-05-05T09:11:38.871Z,101693.50
2023-05-05T09:14:06.606Z,101688.16
2023-05-05T09:16:34.363Z,101688.09
2023-05-05T09:19:04.492Z,101682.72
2023-05-05T09:21:33.122Z,101687.22
2023-05-05T09:24:09.402Z,101680.97
2023-05-05T09:26:39.080Z,101688.09
2023-05-05T09:29:07.655Z,101687.22
2023-05-05T09:31:37.185Z,101689.00
2023-05-05T09:34:17.163Z,101692.53
2023-05-05T09:36:47.732Z,101695.22
2023-05-05T09:39:17.863Z,101697.03
2023-05-05T09:41:46.913Z,101691.69
2023-05-05T09:44:16.876Z,101700.53
2023-05-05T09:46:52.046Z,101691.63
2023-05-05T09:49:25.217Z,101696.06
2023-05-05T09:51:53.678Z,101696.09
2023-05-05T09:54:26.120Z,101697.84
2023-05-05T09:56:54.579Z,101698.75
2023-05-05T09:59:22.710Z,101696.06
2023-05-05T10:01:51.262Z,101696.94
2023-05-05T10:04:28.187Z,101695.16
2023-05-05T10:06:56.742Z,101691.56
2023-05-05T10:09:24.629Z,101688.03
2023-05-05T10:11:53.134Z,101690.69
2023-05-05T10:14:21.132Z,101685.34
2023-05-05T10:16:51.631Z,101687.09
2023-05-05T10:19:21.063Z,101685.34
2023-05-05T10:21:51.529Z,101678.25
2023-05-05T10:24:30.449Z,101681.81
2023-05-05T10:26:59.834Z,101689.91
2023-05-05T10:29:37.741Z,101690.78
2023-05-05T10:32:33.424Z,101685.41
2023-05-05T10:34:59.392Z,101688.16
2023-05-05T10:37:29.026Z,101690.88
2023-05-05T10:39:57.466Z,101687.25
2023-05-05T10:42:25.255Z,101687.25
2023-05-05T10:44:53.500Z,101689.00
2023-05-05T10:47:23.263Z,101684.56
2023-05-05T10:49:56.623Z,101681.03
2023-05-05T10:52:29.569Z,101680.16
2023-05-05T10:55:06.220Z,101692.63
2023-05-05T10:57:38.109Z,101690.88
2023-05-05T11:00:06.351Z,101698.09
2023-05-05T11:02:34.073Z,101695.47
2023-05-05T11:05:17.844Z,101689.19
2023-05-05T11:07:49.225Z,101685.59
2023-05-05T11:10:19.702Z,101688.34
2023-05-05T11:13:20.200Z,101678.47
2023-05-05T11:15:49.064Z,101683.16
2023-05-05T11:18:35.777Z,101683.00
2023-05-05T11:21:19.459Z,101677.63
2023-05-05T11:23:50.040Z,101675.78
2023-05-05T11:26:19.487Z,101667.66
2023-05-05T11:29:01.871Z,101674.69
2023-05-05T11:31:30.654Z,101680.91
2023-05-05T11:34:29.310Z,101664.72
2023-05-05T11:37:03.571Z,101669.13
2023-05-05T11:39:41.985Z,101669.97
2023-05-05T11:42:24.958Z,101671.75
2023-05-05T11:44:53.174Z,101669.06
2023-05-05T11:47:33.331Z,101670.09
2023-05-05T11:50:18.021Z,101674.69
2023-05-05T11:52:46.616Z,101667.56
2023-05-05T11:55:21.163Z,101670.16
2023-05-05T11:57:48.782Z,101673.03
2023-05-05T12:00:17.635Z,101673.16
2023-05-05T12:02:45.998Z,101666.19
2023-05-05T12:05:20.647Z,101672.44
